This is the latest recevied weather packets stored in our database for station/object OE3MNS-13. If no packets are shown the sender has not sent any weather packets the latest 10 day(s).
| Time | Temp. | Humidity | Pressure | Rain* | Wind** | Luminosity | Snow |
|---|---|---|---|---|---|---|---|
| 1777557018 | 15° C | 26% | 1028.1 hPa | 0 mm | - | 585 W/m² | - |
| 1777555222 | 15° C | 27% | 1028.4 hPa | 0 mm | - | 648 W/m² | - |
| 1777552817 | 14.44° C | 28% | 1028.9 hPa | 0 mm | - | 722 W/m² | - |
| 1777550421 | 13.89° C | 29% | 1029.2 hPa | 0 mm | - | 772 W/m² | - |
| 1777543822 | 12.22° C | 32% | 1030.2 hPa | 0 mm | - | 777 W/m² | - |
| 1777541439 | 11.67° C | 32% | 1030.2 hPa | 0 mm | - | 734 W/m² | - |
| 1777531222 | 5° C | 48% | 1031.1 hPa | 0 mm | - | 317 W/m² | - |
| 1777528220 | 2.22° C | 57% | 1030.8 hPa | 0 mm | - | 161 W/m² | - |
| 1777525819 | -0.56° C | 71% | 1030.7 hPa | 0 mm | - | 65 W/m² | - |
| 1777519819 | -1.67° C | 72% | 1030 hPa | 0 mm | - | 1 W/m² | - |
| 1777517419 | -1.67° C | 72% | 1029.9 hPa | 0 mm | - | 0 W/m² | - |
| 1777516239 | -1.67° C | 71% | 1029.8 hPa | 0 mm | - | 0 W/m² | - |
| 1777514424 | -1.11° C | 70% | 1029.6 hPa | 0 mm | - | 0 W/m² | - |
| 1777512024 | -0.56° C | 66% | 1029.4 hPa | 0 mm | - | 0 W/m² | - |
| 1777509620 | 0° C | 64% | 1029.4 hPa | 0 mm | - | 0 W/m² | - |
| 1777501221 | 3.33° C | 51% | 1029.1 hPa | 0 mm | - | 0 W/m² | - |
| 1777499422 | 3.89° C | 46% | 1028.9 hPa | 0 mm | - | 0 W/m² | - |
| 1777498820 | 4.44° C | 45% | 1028.7 hPa | 0 mm | - | 0 W/m² | - |
| 1777496421 | 5.56° C | 38% | 1028.3 hPa | 0 mm | - | 0 W/m² | - |
| 1777485622 | 10° C | 35% | 1024.5 hPa | 0 mm | - | 6 W/m² | - |
| 1777479638 | 13.89° C | 36% | 1022.6 hPa | 0 mm | - | 124 W/m² | - |
| 1777477241 | 16.11° C | 28% | 1022 hPa | 0 mm | - | 279 W/m² | - |
| 1777464618 | 16.67° C | 25% | 1022.7 hPa | 0 mm | - | 764 W/m² | - |
| 1777464017 | 16.11° C | 27% | 1022.6 hPa | 0 mm | - | 774 W/m² | - |
| 1777461621 | 16.11° C | 27% | 1022.9 hPa | 0 mm | - | 801 W/m² | - |
* Rain latest hour (hover to see other rain measurements)
** Current wind speed in m/s (hover to see current wind gust speed)